createdAt,value
2019-06-08T00:02:25.203Z,53.60
2019-06-08T00:04:53.909Z,55.20
2019-06-08T00:07:23.077Z,55.20
2019-06-08T00:09:52.094Z,54.60
2019-06-08T00:12:21.299Z,54.70
2019-06-08T00:14:50.405Z,54.80
2019-06-08T00:17:37.083Z,55.80
2019-06-08T00:19:49.317Z,55.60
2019-06-08T00:22:17.763Z,55.10
2019-06-08T00:24:46.203Z,55.00
2019-06-08T00:27:16.018Z,54.90
2019-06-08T00:29:44.588Z,54.20
2019-06-08T00:32:14.133Z,54.50
2019-06-08T00:34:43.107Z,54.70
2019-06-08T00:37:11.604Z,55.00
2019-06-08T00:39:40.101Z,54.60
2019-06-08T00:42:08.528Z,55.00
2019-06-08T00:44:36.982Z,55.60
2019-06-08T00:47:05.734Z,55.20
2019-06-08T00:49:34.529Z,55.50
2019-06-08T00:52:02.961Z,55.70
2019-06-08T00:54:33.446Z,55.60
2019-06-08T00:57:01.932Z,55.40
2019-06-08T00:59:30.488Z,56.00
2019-06-08T01:01:59.005Z,55.70
2019-06-08T01:04:28.982Z,57.00
2019-06-08T01:06:57.923Z,56.70
2019-06-08T01:09:26.390Z,58.00
2019-06-08T01:11:55.201Z,57.60
2019-06-08T01:14:27.150Z,58.20
2019-06-08T01:16:55.755Z,58.30
2019-06-08T01:19:25.197Z,58.10
2019-06-08T01:21:54.266Z,58.50
2019-06-08T01:24:23.681Z,58.70
2019-06-08T01:26:52.670Z,58.00
2019-06-08T01:29:22.260Z,58.20
2019-06-08T01:31:50.833Z,58.70
2019-06-08T01:34:20.598Z,58.50
2019-06-08T01:36:49.183Z,59.10
2019-06-08T01:39:17.702Z,58.90
2019-06-08T01:41:46.448Z,59.70
2019-06-08T01:44:14.902Z,60.10
2019-06-08T01:46:43.345Z,62.00
2019-06-08T01:49:11.818Z,61.30
2019-06-08T01:51:40.260Z,61.20
2019-06-08T01:54:08.694Z,61.10
2019-06-08T01:56:37.476Z,62.60
2019-06-08T01:59:05.900Z,62.10
2019-06-08T02:01:34.371Z,62.50
2019-06-08T02:04:02.792Z,62.20
2019-06-08T02:06:32.375Z,62.80
2019-06-08T02:09:00.955Z,62.80
2019-06-08T02:11:30.803Z,62.40
2019-06-08T02:13:59.637Z,63.00
2019-06-08T02:16:29.695Z,62.30
2019-06-08T02:18:58.658Z,62.60
2019-06-08T02:21:27.089Z,62.40
2019-06-08T02:23:55.542Z,63.00
2019-06-08T02:26:27.052Z,62.60
2019-06-08T02:28:54.509Z,62.60
2019-06-08T02:31:23.569Z,62.50
2019-06-08T02:33:52.018Z,62.40
2019-06-08T02:36:20.722Z,63.00
2019-06-08T02:38:49.203Z,65.80
2019-06-08T02:41:17.634Z,64.50
2019-06-08T02:43:46.329Z,64.80
2019-06-08T02:46:14.764Z,65.70
2019-06-08T02:49:02.247Z,66.20
2019-06-08T02:51:14.401Z,67.40
2019-06-08T02:53:43.194Z,65.70
2019-06-08T02:56:14.535Z,66.50
2019-06-08T02:58:43.651Z,67.90
2019-06-08T03:01:13.675Z,66.90
2019-06-08T03:03:43.137Z,66.60
2019-06-08T03:06:11.616Z,68.00
2019-06-08T03:08:43.377Z,67.80
2019-06-08T03:11:10.583Z,68.30
2019-06-08T03:13:42.545Z,67.30
2019-06-08T03:16:11.546Z,68.30
2019-06-08T03:18:42.365Z,68.30
2019-06-08T03:21:10.507Z,67.50
2019-06-08T03:23:40.979Z,67.40
2019-06-08T03:26:09.116Z,67.30
2019-06-08T03:28:39.593Z,66.90
2019-06-08T03:31:07.801Z,66.20
2019-06-08T03:33:42.939Z,66.60
2019-06-08T03:36:06.411Z,65.60
2019-06-08T03:38:35.821Z,65.80
2019-06-08T03:41:04.804Z,65.70
2019-06-08T03:43:35.215Z,65.00
2019-06-08T03:46:03.813Z,65.00
2019-06-08T03:48:32.612Z,64.20
2019-06-08T03:51:01.107Z,64.50
2019-06-08T03:53:29.610Z,64.90
2019-06-08T03:55:58.057Z,64.50
2019-06-08T03:58:26.494Z,64.00
2019-06-08T04:00:54.981Z,64.30
2019-06-08T04:03:23.478Z,65.10
2019-06-08T04:05:52.224Z,64.40
2019-06-08T04:08:20.700Z,65.00
2019-06-08T04:10:50.251Z,63.50
2019-06-08T04:13:18.917Z,64.90
2019-06-08T04:15:47.697Z,64.10
2019-06-08T04:18:16.490Z,63.90
2019-06-08T04:20:46.403Z,64.60
2019-06-08T04:23:15.089Z,64.40
2019-06-08T04:25:45.580Z,64.10
2019-06-08T04:28:15.270Z,64.20
2019-06-08T04:30:45.286Z,64.60
2019-06-08T04:33:14.170Z,64.10
2019-06-08T04:35:44.834Z,63.60
2019-06-08T04:38:13.483Z,63.40
2019-06-08T04:40:43.443Z,61.60
2019-06-08T04:43:12.098Z,62.60
2019-06-08T04:45:41.078Z,62.70
2019-06-08T04:48:10.715Z,62.80
2019-06-08T04:50:40.903Z,62.10
2019-06-08T04:53:09.508Z,63.00
2019-06-08T04:55:38.815Z,61.90
2019-06-08T04:58:07.434Z,63.10
2019-06-08T05:00:36.312Z,62.40
2019-06-08T05:03:05.103Z,62.40
2019-06-08T05:05:33.544Z,63.00
2019-06-08T05:08:02.000Z,63.20
2019-06-08T05:10:30.764Z,62.40
2019-06-08T05:12:59.217Z,63.40
2019-06-08T05:15:27.648Z,63.20
2019-06-08T05:17:56.428Z,63.40
2019-06-08T05:20:38.427Z,62.70
2019-06-08T05:22:55.023Z,62.40
2019-06-08T05:25:23.467Z,62.50
2019-06-08T05:27:52.212Z,62.40
2019-06-08T05:30:21.801Z,61.40
2019-06-08T05:32:50.517Z,60.60
2019-06-08T05:35:19.425Z,60.90
2019-06-08T05:37:49.806Z,60.90
2019-06-08T05:40:18.586Z,60.50
2019-06-08T05:42:47.931Z,61.50
2019-06-08T05:45:16.859Z,60.80
2019-06-08T05:47:45.799Z,61.00
2019-06-08T05:50:14.664Z,60.40
2019-06-08T05:52:44.177Z,60.90
2019-06-08T05:55:13.085Z,60.00
2019-06-08T05:57:42.093Z,60.40
2019-06-08T06:00:12.115Z,59.70
2019-06-08T06:02:40.575Z,61.10
2019-06-08T06:05:09.150Z,60.10
2019-06-08T06:07:37.589Z,60.10
2019-06-08T06:10:06.918Z,60.30
2019-06-08T06:12:35.351Z,60.30
2019-06-08T06:15:06.542Z,60.80
2019-06-08T06:17:35.260Z,61.50
2019-06-08T06:20:08.287Z,61.80
2019-06-08T06:22:36.730Z,62.70
2019-06-08T06:25:07.155Z,62.60
2019-06-08T06:27:35.944Z,63.10
2019-06-08T06:30:10.805Z,62.60
2019-06-08T06:32:39.236Z,63.70
2019-06-08T06:35:08.209Z,63.40
2019-06-08T06:37:36.651Z,64.10
2019-06-08T06:40:09.222Z,64.00
2019-06-08T06:42:37.674Z,64.80
2019-06-08T06:45:08.455Z,65.90
2019-06-08T06:47:37.249Z,66.10
2019-06-08T06:50:07.031Z,65.60
2019-06-08T06:52:35.493Z,65.20
2019-06-08T06:55:04.895Z,64.30
2019-06-08T06:57:36.208Z,64.10
2019-06-08T07:00:08.160Z,63.90
2019-06-08T07:02:36.661Z,62.80
2019-06-08T07:05:06.787Z,63.20
2019-06-08T07:07:35.862Z,63.50
2019-06-08T07:10:07.718Z,62.50
2019-06-08T07:12:36.422Z,61.70
2019-06-08T07:15:07.513Z,61.80
2019-06-08T07:17:35.953Z,62.40
2019-06-08T07:20:06.957Z,58.30
2019-06-08T07:22:35.793Z,58.40
2019-06-08T07:25:05.919Z,57.70
2019-06-08T07:27:34.373Z,58.40
2019-06-08T07:30:03.010Z,57.80
2019-06-08T07:32:31.560Z,57.10
2019-06-08T07:34:59.997Z,56.40
2019-06-08T07:37:28.479Z,56.20
2019-06-08T07:39:56.981Z,57.50
2019-06-08T07:42:25.450Z,55.40
2019-06-08T07:44:55.113Z,53.90
2019-06-08T07:47:23.732Z,53.80
2019-06-08T07:49:53.297Z,54.20
2019-06-08T07:52:22.138Z,56.00
2019-06-08T07:54:50.973Z,55.80
2019-06-08T07:57:19.831Z,54.30
2019-06-08T07:59:49.192Z,53.20
2019-06-08T08:02:18.732Z,53.00
2019-06-08T08:04:48.429Z,52.70
2019-06-08T08:07:17.258Z,53.90
2019-06-08T08:09:46.071Z,53.30
2019-06-08T08:12:14.946Z,52.10
2019-06-08T08:14:43.721Z,52.30
2019-06-08T08:17:12.157Z,53.30
2019-06-08T08:19:40.665Z,53.50
2019-06-08T08:22:22.273Z,52.70
2019-06-08T08:24:39.546Z,50.80
2019-06-08T08:27:08.539Z,49.10
2019-06-08T08:29:38.305Z,49.30
2019-06-08T08:32:07.899Z,49.40
2019-06-08T08:34:38.149Z,50.20
2019-06-08T08:37:09.510Z,50.30
2019-06-08T08:39:37.801Z,47.50
2019-06-08T08:42:08.440Z,45.00
2019-06-08T08:44:37.985Z,44.10
2019-06-08T08:47:07.614Z,47.00
2019-06-08T08:49:38.027Z,47.30
2019-06-08T08:52:11.248Z,42.10
2019-06-08T08:54:37.872Z,43.90
2019-06-08T08:57:08.482Z,43.40
2019-06-08T08:59:38.153Z,43.40
2019-06-08T09:02:08.386Z,42.80
2019-06-08T09:04:38.012Z,44.30
2019-06-08T09:07:10.012Z,42.00
2019-06-08T09:09:38.738Z,43.70
2019-06-08T09:12:08.307Z,44.20
2019-06-08T09:14:41.171Z,41.90
2019-06-08T09:17:08.596Z,44.60
2019-06-08T09:19:38.241Z,44.30
2019-06-08T09:22:08.549Z,45.50
2019-06-08T09:24:39.029Z,45.60
2019-06-08T09:27:08.166Z,42.00
2019-06-08T09:29:38.832Z,45.00
2019-06-08T09:32:08.290Z,42.70
2019-06-08T09:34:38.633Z,43.90
2019-06-08T09:37:08.045Z,43.60
2019-06-08T09:39:38.579Z,42.70
2019-06-08T09:42:09.022Z,42.20
2019-06-08T09:44:38.214Z,43.00
2019-06-08T09:47:12.124Z,43.40
2019-06-08T09:49:37.750Z,45.30
2019-06-08T09:52:08.642Z,45.20
2019-06-08T09:54:38.481Z,43.90
2019-06-08T09:57:09.142Z,44.20
2019-06-08T09:59:38.612Z,44.80
2019-06-08T10:02:12.551Z,46.10
2019-06-08T10:04:38.805Z,44.80
2019-06-08T10:07:08.888Z,44.70
2019-06-08T10:09:38.337Z,44.50
2019-06-08T10:12:09.693Z,43.40
2019-06-08T10:14:37.960Z,45.40
2019-06-08T10:17:09.008Z,44.00
2019-06-08T10:19:37.253Z,44.50
2019-06-08T10:22:08.426Z,45.40
2019-06-08T10:24:38.737Z,42.60
2019-06-08T10:27:08.631Z,41.40
2019-06-08T10:29:38.290Z,41.80
2019-06-08T10:32:09.246Z,43.40
2019-06-08T10:34:38.696Z,41.50
2019-06-08T10:37:12.756Z,41.20
2019-06-08T10:39:37.976Z,41.50
2019-06-08T10:42:09.773Z,40.30
2019-06-08T10:44:38.191Z,41.30
2019-06-08T10:47:09.985Z,40.00
2019-06-08T10:49:38.422Z,40.70
2019-06-08T10:52:10.804Z,41.50
2019-06-08T10:54:37.915Z,40.40
2019-06-08T10:57:07.612Z,42.40
2019-06-08T10:59:39.953Z,41.50
2019-06-08T11:02:11.445Z,41.10
2019-06-08T11:04:38.841Z,42.20
2019-06-08T11:07:13.176Z,41.70
2019-06-08T11:09:38.050Z,43.20
2019-06-08T11:12:11.193Z,42.60
2019-06-08T11:14:38.212Z,43.00
2019-06-08T11:17:09.952Z,42.50
2019-06-08T11:19:38.001Z,41.80
2019-06-08T11:22:12.337Z,41.50
2019-06-08T11:24:38.793Z,41.70
2019-06-08T11:27:10.613Z,41.90
2019-06-08T11:29:38.306Z,39.00
2019-06-08T11:32:10.940Z,38.40
2019-06-08T11:34:37.807Z,41.20
2019-06-08T11:37:07.846Z,37.90
2019-06-08T11:39:38.252Z,37.10
2019-06-08T11:42:10.971Z,36.50
2019-06-08T11:44:38.962Z,39.10
2019-06-08T11:47:11.325Z,37.80
2019-06-08T11:49:38.347Z,36.10
2019-06-08T11:52:08.954Z,36.20
2019-06-08T11:54:40.836Z,37.50
2019-06-08T11:57:10.871Z,36.90
2019-06-08T11:59:40.167Z,36.90
2019-06-08T12:02:11.126Z,38.10
2019-06-08T12:04:39.100Z,35.80
2019-06-08T12:07:09.547Z,35.50
2019-06-08T12:09:37.985Z,36.80
2019-06-08T12:12:12.318Z,35.30
2019-06-08T12:14:37.686Z,37.00
2019-06-08T12:17:10.865Z,35.30
2019-06-08T12:19:37.929Z,36.30
2019-06-08T12:22:08.769Z,36.40
2019-06-08T12:24:41.857Z,34.60
2019-06-08T12:27:19.464Z,33.70
2019-06-08T12:29:37.210Z,33.30
2019-06-08T12:32:08.862Z,33.20
2019-06-08T12:34:38.226Z,33.60
2019-06-08T12:37:08.825Z,32.20
2019-06-08T12:39:38.779Z,31.80
2019-06-08T12:42:09.615Z,35.00
2019-06-08T12:44:38.443Z,34.50
2019-06-08T12:47:12.647Z,33.30
2019-06-08T12:49:39.940Z,30.30
2019-06-08T12:52:08.640Z,33.20
2019-06-08T12:54:37.960Z,33.60
2019-06-08T12:57:10.141Z,31.70
2019-06-08T12:59:38.530Z,32.00
2019-06-08T13:02:08.927Z,29.60
2019-06-08T13:04:38.432Z,29.50
2019-06-08T13:07:09.757Z,32.00
2019-06-08T13:09:38.112Z,31.70
2019-06-08T13:12:07.915Z,31.20
2019-06-08T13:14:38.525Z,30.00
2019-06-08T13:17:08.746Z,30.10
2019-06-08T13:19:38.678Z,32.00
2019-06-08T13:22:08.782Z,28.90
2019-06-08T13:24:37.863Z,29.20
2019-06-08T13:27:06.903Z,28.80
2019-06-08T13:29:35.654Z,28.00
2019-06-08T13:32:04.162Z,30.00
2019-06-08T13:34:32.623Z,28.50
2019-06-08T13:37:01.424Z,28.50
2019-06-08T13:39:29.872Z,28.50
2019-06-08T13:41:58.368Z,27.70
2019-06-08T13:44:27.873Z,29.00
2019-06-08T13:46:57.856Z,28.80
2019-06-08T13:49:30.370Z,25.90
2019-06-08T13:51:58.332Z,26.00
2019-06-08T13:54:30.909Z,26.90
2019-06-08T13:56:58.935Z,27.50
2019-06-08T13:59:30.781Z,23.90
2019-06-08T14:01:58.407Z,22.90
2019-06-08T14:04:27.067Z,23.10
2019-06-08T14:06:57.744Z,23.50
2019-06-08T14:09:28.587Z,22.70
2019-06-08T14:11:57.754Z,22.60
2019-06-08T14:14:28.927Z,22.30
2019-06-08T14:16:58.717Z,21.70
2019-06-08T14:19:29.704Z,19.70
2019-06-08T14:21:58.017Z,18.40
2019-06-08T14:24:31.941Z,18.50
2019-06-08T14:26:58.471Z,19.70
2019-06-08T14:29:28.914Z,18.80
2019-06-08T14:31:57.799Z,19.60
2019-06-08T14:34:29.091Z,19.20
2019-06-08T14:36:58.948Z,18.50
2019-06-08T14:39:29.639Z,19.30
2019-06-08T14:41:57.826Z,18.80
2019-06-08T14:44:31.338Z,17.90
2019-06-08T14:46:57.986Z,18.90
2019-06-08T14:49:30.689Z,17.30
2019-06-08T14:51:57.971Z,17.20
2019-06-08T14:54:32.710Z,19.00
2019-06-08T14:56:57.783Z,19.10
2019-06-08T14:59:29.616Z,18.70
2019-06-08T15:01:56.703Z,17.80
2019-06-08T15:04:28.403Z,17.20
2019-06-08T15:06:58.436Z,18.70
2019-06-08T15:09:27.534Z,18.10
2019-06-08T15:11:58.262Z,18.70
2019-06-08T15:14:29.376Z,18.80
2019-06-08T15:16:58.846Z,18.60
2019-06-08T15:19:29.026Z,20.40
2019-06-08T15:21:57.601Z,19.40
2019-06-08T15:24:29.268Z,20.40
2019-06-08T15:26:58.323Z,20.50
2019-06-08T15:29:29.126Z,19.90
2019-06-08T15:31:58.233Z,20.70
2019-06-08T15:34:29.586Z,20.60
2019-06-08T15:36:57.620Z,21.30
2019-06-08T15:39:29.039Z,19.90
2019-06-08T15:41:59.897Z,20.80
2019-06-08T15:44:29.090Z,20.00
2019-06-08T15:46:58.490Z,21.50
2019-06-08T15:49:29.472Z,20.40
2019-06-08T15:51:57.888Z,20.30
2019-06-08T15:54:32.228Z,21.50
2019-06-08T15:56:58.487Z,21.60
2019-06-08T15:59:31.188Z,22.30
2019-06-08T16:01:57.304Z,22.30
2019-06-08T16:04:26.019Z,21.10
2019-06-08T16:06:54.517Z,20.70
2019-06-08T16:09:23.977Z,21.80
2019-06-08T16:11:52.904Z,20.30
2019-06-08T16:14:21.706Z,21.30
2019-06-08T16:16:50.503Z,22.40
2019-06-08T16:19:21.869Z,24.30
2019-06-08T16:21:51.045Z,23.50
2019-06-08T16:24:19.520Z,24.70
2019-06-08T16:26:53.133Z,23.50
2019-06-08T16:29:18.659Z,23.70
2019-06-08T16:31:47.122Z,23.60
2019-06-08T16:34:15.940Z,23.80
2019-06-08T16:36:44.455Z,23.90
2019-06-08T16:39:13.218Z,25.20
2019-06-08T16:41:41.675Z,23.40
2019-06-08T16:44:10.108Z,24.80
2019-06-08T16:46:39.479Z,24.20
2019-06-08T16:49:08.301Z,24.70
2019-06-08T16:51:36.704Z,24.30
2019-06-08T16:54:05.564Z,23.90
2019-06-08T16:56:34.180Z,24.90
2019-06-08T16:59:02.823Z,25.10
2019-06-08T17:01:32.909Z,25.50
2019-06-08T17:04:01.568Z,25.80
2019-06-08T17:06:31.052Z,26.60
2019-06-08T17:08:59.715Z,25.80
2019-06-08T17:11:29.457Z,26.00
2019-06-08T17:13:58.184Z,26.00
2019-06-08T17:16:26.961Z,26.70
2019-06-08T17:18:56.331Z,26.20
2019-06-08T17:21:24.996Z,27.60
2019-06-08T17:23:53.742Z,26.80
2019-06-08T17:26:22.536Z,28.10
2019-06-08T17:28:50.961Z,28.80
2019-06-08T17:31:19.414Z,27.80
2019-06-08T17:33:48.204Z,27.10
2019-06-08T17:36:16.991Z,28.70
2019-06-08T17:38:45.429Z,28.20
2019-06-08T17:41:14.375Z,27.00
2019-06-08T17:43:42.795Z,28.90
2019-06-08T17:46:11.235Z,27.90
2019-06-08T17:48:40.701Z,25.30
2019-06-08T17:51:09.256Z,26.40
2019-06-08T17:53:39.081Z,26.50
2019-06-08T17:56:07.671Z,29.30
2019-06-08T17:58:37.269Z,28.90
2019-06-08T18:01:05.849Z,26.50
2019-06-08T18:03:35.391Z,28.40
2019-06-08T18:06:07.282Z,29.30
2019-06-08T18:08:39.159Z,28.80
2019-06-08T18:11:07.919Z,28.90
2019-06-08T18:13:39.088Z,28.10
2019-06-08T18:16:08.229Z,28.30
2019-06-08T18:18:39.162Z,27.60
2019-06-08T18:21:08.185Z,28.00
2019-06-08T18:23:39.145Z,29.20
2019-06-08T18:26:07.697Z,27.80
2019-06-08T18:28:39.279Z,29.10
2019-06-08T18:31:07.555Z,29.70
2019-06-08T18:33:39.469Z,29.90
2019-06-08T18:36:07.644Z,29.00
2019-06-08T18:38:39.812Z,31.10
2019-06-08T18:41:08.319Z,32.10
2019-06-08T18:43:39.576Z,36.60
2019-06-08T18:46:07.160Z,34.10
2019-06-08T18:48:39.549Z,37.70
2019-06-08T18:51:08.374Z,39.20
2019-06-08T18:53:55.793Z,41.00
2019-06-08T18:56:08.181Z,47.10
2019-06-08T18:58:37.699Z,47.40
2019-06-08T19:01:08.282Z,47.20
2019-06-08T19:03:40.293Z,48.20
2019-06-08T19:06:10.126Z,48.60
2019-06-08T19:08:41.691Z,49.90
2019-06-08T19:11:09.781Z,48.90
2019-06-08T19:13:39.020Z,48.10
2019-06-08T19:16:08.036Z,49.00
2019-06-08T19:18:41.430Z,48.90
2019-06-08T19:21:07.865Z,49.90
2019-06-08T19:23:39.035Z,51.40
2019-06-08T19:26:07.694Z,51.50
2019-06-08T19:28:40.907Z,50.90
2019-06-08T19:31:09.856Z,50.70
2019-06-08T19:33:38.911Z,51.10
2019-06-08T19:36:07.877Z,51.40
2019-06-08T19:38:38.455Z,50.10
2019-06-08T19:41:08.140Z,48.40
2019-06-08T19:43:39.017Z,49.90
2019-06-08T19:46:07.333Z,52.90
2019-06-08T19:48:36.838Z,54.00
2019-06-08T19:51:07.642Z,54.90
2019-06-08T19:53:39.708Z,55.50
2019-06-08T19:56:07.866Z,56.60
2019-06-08T19:58:51.583Z,54.60
2019-06-08T20:01:07.272Z,52.70
2019-06-08T20:03:37.853Z,52.00
2019-06-08T20:06:06.806Z,53.20
2019-06-08T20:08:37.378Z,55.20
2019-06-08T20:11:08.081Z,55.60
2019-06-08T20:13:37.651Z,54.60
2019-06-08T20:16:08.406Z,53.40
2019-06-08T20:18:37.500Z,56.70
2019-06-08T20:21:09.998Z,57.60
2019-06-08T20:23:38.272Z,58.40
2019-06-08T20:26:08.342Z,58.50
2019-06-08T20:28:37.358Z,59.10
2019-06-08T20:31:07.477Z,59.70
2019-06-08T20:33:37.837Z,60.90
2019-06-08T20:36:08.345Z,60.50
2019-06-08T20:38:41.470Z,59.60
2019-06-08T20:41:07.620Z,56.90
2019-06-08T20:43:40.516Z,57.30
2019-06-08T20:46:08.146Z,56.70
2019-06-08T20:48:37.817Z,53.90
2019-06-08T20:51:07.809Z,55.20
2019-06-08T20:53:38.744Z,57.10
2019-06-08T20:56:07.974Z,57.60
2019-06-08T20:58:37.151Z,58.30
2019-06-08T21:01:07.394Z,57.30
2019-06-08T21:03:35.995Z,57.40
2019-06-08T21:06:04.759Z,58.50
2019-06-08T21:08:33.234Z,57.60
2019-06-08T21:11:01.678Z,57.40
2019-06-08T21:13:30.129Z,55.90
2019-06-08T21:16:00.807Z,56.20
2019-06-08T21:18:28.730Z,56.00
2019-06-08T21:20:58.003Z,52.90
2019-06-08T21:23:28.109Z,55.80
2019-06-08T21:25:59.988Z,56.30
2019-06-08T21:28:28.095Z,54.80
2019-06-08T21:31:01.208Z,53.80
2019-06-08T21:33:27.042Z,54.60
2019-06-08T21:36:00.306Z,55.10
2019-06-08T21:38:28.051Z,56.40
2019-06-08T21:41:02.057Z,56.90
2019-06-08T21:43:27.886Z,58.00
2019-06-08T21:45:59.466Z,59.40
2019-06-08T21:48:27.568Z,60.70
2019-06-08T21:51:01.045Z,61.80
2019-06-08T21:53:29.671Z,61.30
2019-06-08T21:55:58.414Z,60.60
2019-06-08T21:58:27.424Z,62.50
2019-06-08T22:00:59.169Z,63.60
2019-06-08T22:03:28.134Z,63.20
2019-06-08T22:05:58.857Z,62.60
2019-06-08T22:08:27.352Z,62.90
2019-06-08T22:10:58.941Z,63.50
2019-06-08T22:13:28.301Z,63.30
2019-06-08T22:15:59.830Z,63.10
2019-06-08T22:18:27.361Z,63.00
2019-06-08T22:20:59.456Z,62.50
2019-06-08T22:23:26.713Z,62.30
2019-06-08T22:25:56.026Z,63.20
2019-06-08T22:28:27.075Z,63.40
2019-06-08T22:30:58.466Z,63.20
2019-06-08T22:33:28.072Z,63.50
2019-06-08T22:35:58.568Z,64.50
2019-06-08T22:38:26.749Z,63.50
2019-06-08T22:40:57.644Z,64.30
2019-06-08T22:43:25.969Z,64.20
2019-06-08T22:45:54.520Z,64.10
2019-06-08T22:48:22.941Z,60.10
2019-06-08T22:50:53.314Z,59.80
2019-06-08T22:53:21.548Z,60.80
2019-06-08T22:55:49.984Z,62.20
2019-06-08T22:58:19.208Z,62.80
2019-06-08T23:00:52.510Z,61.20
2019-06-08T23:03:18.619Z,58.70
2019-06-08T23:05:47.820Z,57.90
2019-06-08T23:08:17.614Z,59.20
2019-06-08T23:10:48.288Z,60.80
2019-06-08T23:13:17.973Z,61.20
2019-06-08T23:15:47.835Z,60.40
2019-06-08T23:18:18.023Z,62.10
2019-06-08T23:20:48.110Z,61.50
2019-06-08T23:23:17.896Z,63.00
2019-06-08T23:25:47.863Z,62.30
2019-06-08T23:28:18.055Z,62.40
2019-06-08T23:30:47.755Z,62.70
2019-06-08T23:33:18.956Z,62.80
2019-06-08T23:36:27.426Z,61.70
2019-06-08T23:38:17.389Z,62.60
2019-06-08T23:40:47.446Z,62.20
2019-06-08T23:43:18.189Z,61.40
2019-06-08T23:45:47.497Z,62.20
2019-06-08T23:48:17.436Z,60.60
2019-06-08T23:50:47.414Z,58.80
2019-06-08T23:53:18.146Z,59.50
2019-06-08T23:55:47.936Z,59.50
2019-06-08T23:58:17.648Z,60.20
